sensor_id;sensor_type;location;lat;lon;timestamp;P1;durP1;ratioP1;P2;durP2;ratioP2
47896;SDS011;39629;51.400;5.494;2023-03-14T00:03:03;4.63;;;0.90;;
47896;SDS011;39629;51.400;5.494;2023-03-14T00:08:06;4.22;;;1.00;;
47896;SDS011;39629;51.400;5.494;2023-03-14T00:13:07;3.00;;;0.80;;
47896;SDS011;39629;51.400;5.494;2023-03-14T00:18:09;4.68;;;0.90;;
47896;SDS011;39629;51.400;5.494;2023-03-14T00:23:12;6.50;;;0.80;;
47896;SDS011;39629;51.400;5.494;2023-03-14T00:28:14;6.57;;;0.82;;
47896;SDS011;39629;51.400;5.494;2023-03-14T00:33:15;2.90;;;0.90;;
47896;SDS011;39629;51.400;5.494;2023-03-14T00:38:18;5.70;;;1.85;;
47896;SDS011;39629;51.400;5.494;2023-03-14T00:43:20;3.30;;;0.60;;
47896;SDS011;39629;51.400;5.494;2023-03-14T00:48:23;4.22;;;0.88;;
47896;SDS011;39629;51.400;5.494;2023-03-14T00:53:26;3.70;;;0.80;;
47896;SDS011;39629;51.400;5.494;2023-03-14T00:58:27;3.55;;;0.70;;
47896;SDS011;39629;51.400;5.494;2023-03-14T01:03:29;5.38;;;0.68;;
47896;SDS011;39629;51.400;5.494;2023-03-14T01:08:32;2.88;;;0.52;;
47896;SDS011;39629;51.400;5.494;2023-03-14T01:13:35;5.40;;;1.67;;
47896;SDS011;39629;51.400;5.494;2023-03-14T01:18:38;1.65;;;0.60;;
47896;SDS011;39629;51.400;5.494;2023-03-14T01:23:41;5.30;;;0.85;;
47896;SDS011;39629;51.400;5.494;2023-03-14T01:28:44;3.20;;;0.63;;
47896;SDS011;39629;51.400;5.494;2023-03-14T01:33:47;3.10;;;0.60;;
47896;SDS011;39629;51.400;5.494;2023-03-14T01:38:50;2.88;;;0.50;;
47896;SDS011;39629;51.400;5.494;2023-03-14T01:43:52;2.20;;;0.50;;
47896;SDS011;39629;51.400;5.494;2023-03-14T01:48:55;3.20;;;0.60;;
47896;SDS011;39629;51.400;5.494;2023-03-14T01:54:06;2.53;;;0.60;;
47896;SDS011;39629;51.400;5.494;2023-03-14T01:59:14;5.55;;;0.65;;
47896;SDS011;39629;51.400;5.494;2023-03-14T02:04:16;5.30;;;1.30;;
47896;SDS011;39629;51.400;5.494;2023-03-14T02:09:22;5.05;;;0.90;;
47896;SDS011;39629;51.400;5.494;2023-03-14T02:14:27;3.95;;;0.90;;
47896;SDS011;39629;51.400;5.494;2023-03-14T02:19:50;4.30;;;0.87;;
47896;SDS011;39629;51.400;5.494;2023-03-14T02:25:13;8.32;;;0.90;;
47896;SDS011;39629;51.400;5.494;2023-03-14T02:30:23;6.53;;;1.23;;
47896;SDS011;39629;51.400;5.494;2023-03-14T02:35:27;5.15;;;0.80;;
47896;SDS011;39629;51.400;5.494;2023-03-14T02:40:33;4.78;;;0.98;;
47896;SDS011;39629;51.400;5.494;2023-03-14T02:45:38;2.63;;;0.68;;
47896;SDS011;39629;51.400;5.494;2023-03-14T02:50:47;3.92;;;1.48;;
47896;SDS011;39629;51.400;5.494;2023-03-14T02:55:51;4.88;;;0.90;;
47896;SDS011;39629;51.400;5.494;2023-03-14T03:00:57;4.03;;;1.00;;
47896;SDS011;39629;51.400;5.494;2023-03-14T03:05:58;3.20;;;0.63;;
47896;SDS011;39629;51.400;5.494;2023-03-14T03:11:01;7.68;;;1.23;;
47896;SDS011;39629;51.400;5.494;2023-03-14T03:16:08;6.97;;;0.98;;
47896;SDS011;39629;51.400;5.494;2023-03-14T03:21:10;6.43;;;0.70;;
47896;SDS011;39629;51.400;5.494;2023-03-14T03:26:11;7.32;;;0.90;;
47896;SDS011;39629;51.400;5.494;2023-03-14T03:31:14;6.82;;;1.52;;
47896;SDS011;39629;51.400;5.494;2023-03-14T03:36:17;4.45;;;0.80;;
47896;SDS011;39629;51.400;5.494;2023-03-14T03:41:22;6.35;;;1.17;;
47896;SDS011;39629;51.400;5.494;2023-03-14T03:46:26;3.28;;;0.85;;
47896;SDS011;39629;51.400;5.494;2023-03-14T03:51:28;3.38;;;0.65;;
47896;SDS011;39629;51.400;5.494;2023-03-14T03:56:30;3.78;;;0.70;;
47896;SDS011;39629;51.400;5.494;2023-03-14T04:01:33;4.00;;;0.75;;
47896;SDS011;39629;51.400;5.494;2023-03-14T04:06:36;6.65;;;0.73;;
47896;SDS011;39629;51.400;5.494;2023-03-14T04:11:38;3.38;;;0.70;;
47896;SDS011;39629;51.400;5.494;2023-03-14T04:17:04;7.60;;;1.67;;
47896;SDS011;39629;51.400;5.494;2023-03-14T04:22:05;2.10;;;0.50;;
47896;SDS011;39629;51.400;5.494;2023-03-14T04:27:16;4.63;;;0.40;;
47896;SDS011;39629;51.400;5.494;2023-03-14T04:32:20;2.72;;;0.70;;
47896;SDS011;39629;51.400;5.494;2023-03-14T04:37:23;2.40;;;0.57;;
47896;SDS011;39629;51.400;5.494;2023-03-14T04:42:25;3.35;;;0.70;;
47896;SDS011;39629;51.400;5.494;2023-03-14T04:47:28;2.65;;;0.60;;
47896;SDS011;39629;51.400;5.494;2023-03-14T04:52:30;2.28;;;0.82;;
47896;SDS011;39629;51.400;5.494;2023-03-14T04:57:35;2.80;;;0.70;;
47896;SDS011;39629;51.400;5.494;2023-03-14T05:02:44;2.10;;;0.80;;
47896;SDS011;39629;51.400;5.494;2023-03-14T05:08:04;4.22;;;0.98;;
47896;SDS011;39629;51.400;5.494;2023-03-14T05:13:15;4.20;;;1.10;;
47896;SDS011;39629;51.400;5.494;2023-03-14T05:18:26;4.55;;;1.33;;
47896;SDS011;39629;51.400;5.494;2023-03-14T05:23:44;4.50;;;1.45;;
47896;SDS011;39629;51.400;5.494;2023-03-14T05:29:06;6.63;;;1.63;;
47896;SDS011;39629;51.400;5.494;2023-03-14T05:34:36;4.80;;;1.80;;
47896;SDS011;39629;51.400;5.494;2023-03-14T05:40:05;3.72;;;1.60;;
47896;SDS011;39629;51.400;5.494;2023-03-14T05:45:19;5.47;;;1.75;;
47896;SDS011;39629;51.400;5.494;2023-03-14T05:50:34;4.22;;;2.17;;
47896;SDS011;39629;51.400;5.494;2023-03-14T05:56:05;3.95;;;1.60;;
47896;SDS011;39629;51.400;5.494;2023-03-14T06:01:26;3.65;;;1.70;;
47896;SDS011;39629;51.400;5.494;2023-03-14T06:06:41;3.05;;;1.52;;
47896;SDS011;39629;51.400;5.494;2023-03-14T06:11:44;3.58;;;1.50;;
47896;SDS011;39629;51.400;5.494;2023-03-14T06:16:47;4.80;;;1.50;;
47896;SDS011;39629;51.400;5.494;2023-03-14T06:21:52;4.35;;;1.40;;
47896;SDS011;39629;51.400;5.494;2023-03-14T06:26:54;3.38;;;1.27;;
47896;SDS011;39629;51.400;5.494;2023-03-14T06:31:56;3.60;;;1.27;;
47896;SDS011;39629;51.400;5.494;2023-03-14T06:36:59;4.28;;;1.15;;
47896;SDS011;39629;51.400;5.494;2023-03-14T06:42:01;4.10;;;1.40;;
47896;SDS011;39629;51.400;5.494;2023-03-14T06:47:03;3.42;;;1.30;;
47896;SDS011;39629;51.400;5.494;2023-03-14T06:52:07;2.33;;;1.20;;
47896;SDS011;39629;51.400;5.494;2023-03-14T06:57:09;4.07;;;1.27;;
47896;SDS011;39629;51.400;5.494;2023-03-14T07:02:11;2.50;;;1.05;;
47896;SDS011;39629;51.400;5.494;2023-03-14T07:07:16;1.92;;;0.93;;
47896;SDS011;39629;51.400;5.494;2023-03-14T07:12:17;2.65;;;1.20;;
47896;SDS011;39629;51.400;5.494;2023-03-14T07:17:19;3.72;;;1.35;;
47896;SDS011;39629;51.400;5.494;2023-03-14T07:22:22;2.28;;;1.27;;
47896;SDS011;39629;51.400;5.494;2023-03-14T07:27:24;4.93;;;1.25;;
47896;SDS011;39629;51.400;5.494;2023-03-14T07:32:26;3.20;;;1.08;;
47896;SDS011;39629;51.400;5.494;2023-03-14T07:37:29;2.53;;;1.40;;
47896;SDS011;39629;51.400;5.494;2023-03-14T07:47:49;1.17;;;0.50;;
47896;SDS011;39629;51.400;5.494;2023-03-14T07:52:52;0.70;;;0.30;;
47896;SDS011;39629;51.400;5.494;2023-03-14T07:57:53;1.10;;;0.45;;
47896;SDS011;39629;51.400;5.494;2023-03-14T08:02:55;1.27;;;0.47;;
47896;SDS011;39629;51.400;5.494;2023-03-14T08:07:58;1.10;;;0.50;;
47896;SDS011;39629;51.400;5.494;2023-03-14T08:12:59;1.05;;;0.60;;
47896;SDS011;39629;51.400;5.494;2023-03-14T08:18:01;1.33;;;0.80;;
47896;SDS011;39629;51.400;5.494;2023-03-14T08:23:04;1.80;;;1.20;;
47896;SDS011;39629;51.400;5.494;2023-03-14T08:28:06;1.85;;;1.10;;
47896;SDS011;39629;51.400;5.494;2023-03-14T08:33:07;1.92;;;1.00;;
47896;SDS011;39629;51.400;5.494;2023-03-14T08:38:10;1.48;;;0.90;;
47896;SDS011;39629;51.400;5.494;2023-03-14T08:43:12;1.63;;;0.82;;
47896;SDS011;39629;51.400;5.494;2023-03-14T08:48:14;2.50;;;0.90;;
47896;SDS011;39629;51.400;5.494;2023-03-14T08:53:17;1.23;;;0.90;;
47896;SDS011;39629;51.400;5.494;2023-03-14T08:58:18;5.03;;;1.30;;
47896;SDS011;39629;51.400;5.494;2023-03-14T09:03:20;3.10;;;1.20;;
47896;SDS011;39629;51.400;5.494;2023-03-14T09:08:24;1.35;;;0.60;;
47896;SDS011;39629;51.400;5.494;2023-03-14T09:13:26;2.88;;;0.80;;
47896;SDS011;39629;51.400;5.494;2023-03-14T09:18:27;2.47;;;0.60;;
47896;SDS011;39629;51.400;5.494;2023-03-14T09:23:30;3.55;;;0.80;;
47896;SDS011;39629;51.400;5.494;2023-03-14T09:28:32;2.80;;;0.80;;
47896;SDS011;39629;51.400;5.494;2023-03-14T09:33:33;2.70;;;0.77;;
47896;SDS011;39629;51.400;5.494;2023-03-14T09:38:36;3.40;;;0.77;;
47896;SDS011;39629;51.400;5.494;2023-03-14T09:43:38;2.25;;;0.90;;
47896;SDS011;39629;51.400;5.494;2023-03-14T09:48:41;3.22;;;1.20;;
47896;SDS011;39629;51.400;5.494;2023-03-14T09:53:46;2.03;;;1.10;;
47896;SDS011;39629;51.400;5.494;2023-03-14T09:58:50;1.77;;;0.60;;
47896;SDS011;39629;51.400;5.494;2023-03-14T10:03:56;0.90;;;0.40;;
47896;SDS011;39629;51.400;5.494;2023-03-14T10:09:01;1.20;;;0.30;;
47896;SDS011;39629;51.400;5.494;2023-03-14T10:14:06;0.45;;;0.20;;
47896;SDS011;39629;51.400;5.494;2023-03-14T10:19:10;1.80;;;0.20;;
47896;SDS011;39629;51.400;5.494;2023-03-14T10:24:21;1.48;;;0.40;;
47896;SDS011;39629;51.400;5.494;2023-03-14T10:29:28;1.60;;;0.40;;
47896;SDS011;39629;51.400;5.494;2023-03-14T10:34:32;0.77;;;0.30;;
47896;SDS011;39629;51.400;5.494;2023-03-14T10:39:45;0.95;;;0.30;;
47896;SDS011;39629;51.400;5.494;2023-03-14T10:44:49;2.15;;;0.30;;
47896;SDS011;39629;51.400;5.494;2023-03-14T10:49:55;2.80;;;0.85;;
47896;SDS011;39629;51.400;5.494;2023-03-14T10:54:59;1.55;;;0.50;;
47896;SDS011;39629;51.400;5.494;2023-03-14T11:00:03;3.60;;;0.50;;
47896;SDS011;39629;51.400;5.494;2023-03-14T11:05:11;3.35;;;0.30;;
47896;SDS011;39629;51.400;5.494;2023-03-14T11:10:26;5.15;;;0.80;;
47896;SDS011;39629;51.400;5.494;2023-03-14T11:15:34;2.35;;;0.63;;
47896;SDS011;39629;51.400;5.494;2023-03-14T11:20:38;4.93;;;0.60;;
47896;SDS011;39629;51.400;5.494;2023-03-14T11:25:49;5.10;;;0.70;;
47896;SDS011;39629;51.400;5.494;2023-03-14T11:30:59;5.47;;;0.90;;
47896;SDS011;39629;51.400;5.494;2023-03-14T11:36:10;6.75;;;1.02;;
47896;SDS011;39629;51.400;5.494;2023-03-14T11:41:19;9.15;;;2.08;;
47896;SDS011;39629;51.400;5.494;2023-03-14T11:46:25;6.40;;;1.20;;
47896;SDS011;39629;51.400;5.494;2023-03-14T11:51:29;4.38;;;0.98;;
47896;SDS011;39629;51.400;5.494;2023-03-14T11:56:37;8.95;;;0.95;;
47896;SDS011;39629;51.400;5.494;2023-03-14T12:01:48;3.95;;;0.98;;
47896;SDS011;39629;51.400;5.494;2023-03-14T12:06:53;7.75;;;0.98;;
47896;SDS011;39629;51.400;5.494;2023-03-14T12:11:59;5.97;;;0.85;;
47896;SDS011;39629;51.400;5.494;2023-03-14T12:17:04;8.88;;;1.10;;
47896;SDS011;39629;51.400;5.494;2023-03-14T12:27:40;7.75;;;1.42;;
47896;SDS011;39629;51.400;5.494;2023-03-14T12:32:51;6.57;;;1.00;;
47896;SDS011;39629;51.400;5.494;2023-03-14T12:38:13;12.07;;;1.13;;
47896;SDS011;39629;51.400;5.494;2023-03-14T12:43:26;11.48;;;1.23;;
47896;SDS011;39629;51.400;5.494;2023-03-14T12:48:30;8.27;;;0.88;;
47896;SDS011;39629;51.400;5.494;2023-03-14T12:53:44;8.95;;;1.30;;
47896;SDS011;39629;51.400;5.494;2023-03-14T12:59:04;4.78;;;1.13;;
47896;SDS011;39629;51.400;5.494;2023-03-14T13:04:15;9.45;;;1.48;;
47896;SDS011;39629;51.400;5.494;2023-03-14T13:14:58;9.60;;;1.30;;
47896;SDS011;39629;51.400;5.494;2023-03-14T13:20:05;11.88;;;1.50;;
47896;SDS011;39629;51.400;5.494;2023-03-14T13:25:14;13.43;;;1.50;;
47896;SDS011;39629;51.400;5.494;2023-03-14T13:30:19;10.00;;;1.20;;
47896;SDS011;39629;51.400;5.494;2023-03-14T13:35:24;8.27;;;0.70;;
47896;SDS011;39629;51.400;5.494;2023-03-14T13:40:29;5.53;;;0.85;;
47896;SDS011;39629;51.400;5.494;2023-03-14T13:45:42;6.63;;;0.88;;
47896;SDS011;39629;51.400;5.494;2023-03-14T13:50:46;7.53;;;1.30;;
47896;SDS011;39629;51.400;5.494;2023-03-14T13:55:52;6.18;;;0.95;;
47896;SDS011;39629;51.400;5.494;2023-03-14T14:01:05;5.60;;;0.93;;
47896;SDS011;39629;51.400;5.494;2023-03-14T14:06:19;6.93;;;1.02;;
47896;SDS011;39629;51.400;5.494;2023-03-14T14:11:32;6.43;;;1.20;;
47896;SDS011;39629;51.400;5.494;2023-03-14T14:16:40;3.25;;;0.80;;
47896;SDS011;39629;51.400;5.494;2023-03-14T14:21:45;4.40;;;0.82;;
47896;SDS011;39629;51.400;5.494;2023-03-14T14:26:47;6.00;;;0.90;;
47896;SDS011;39629;51.400;5.494;2023-03-14T14:32:00;5.82;;;0.82;;
47896;SDS011;39629;51.400;5.494;2023-03-14T14:37:03;7.28;;;0.90;;
47896;SDS011;39629;51.400;5.494;2023-03-14T14:42:04;7.35;;;1.10;;
47896;SDS011;39629;51.400;5.494;2023-03-14T14:47:15;6.45;;;0.90;;
47896;SDS011;39629;51.400;5.494;2023-03-14T14:52:21;2.88;;;0.90;;
47896;SDS011;39629;51.400;5.494;2023-03-14T14:57:32;4.82;;;0.70;;
47896;SDS011;39629;51.400;5.494;2023-03-14T15:02:39;5.45;;;0.80;;
47896;SDS011;39629;51.400;5.494;2023-03-14T15:07:46;5.95;;;0.95;;
47896;SDS011;39629;51.400;5.494;2023-03-14T15:12:48;4.35;;;0.65;;
47896;SDS011;39629;51.400;5.494;2023-03-14T15:17:51;3.28;;;0.60;;
47896;SDS011;39629;51.400;5.494;2023-03-14T15:22:52;5.40;;;1.10;;
47896;SDS011;39629;51.400;5.494;2023-03-14T15:27:54;5.93;;;0.73;;
47896;SDS011;39629;51.400;5.494;2023-03-14T15:32:57;6.43;;;0.90;;
47896;SDS011;39629;51.400;5.494;2023-03-14T15:37:58;2.90;;;0.70;;
47896;SDS011;39629;51.400;5.494;2023-03-14T15:43:00;4.03;;;0.80;;
47896;SDS011;39629;51.400;5.494;2023-03-14T15:48:04;5.35;;;1.10;;
47896;SDS011;39629;51.400;5.494;2023-03-14T15:53:05;5.10;;;0.90;;
47896;SDS011;39629;51.400;5.494;2023-03-14T15:58:08;3.17;;;0.88;;
47896;SDS011;39629;51.400;5.494;2023-03-14T16:03:17;5.10;;;0.70;;
47896;SDS011;39629;51.400;5.494;2023-03-14T16:08:18;3.28;;;1.10;;
47896;SDS011;39629;51.400;5.494;2023-03-14T16:13:20;4.65;;;0.93;;
47896;SDS011;39629;51.400;5.494;2023-03-14T16:18:23;4.82;;;0.98;;
47896;SDS011;39629;51.400;5.494;2023-03-14T16:23:26;6.83;;;0.77;;
47896;SDS011;39629;51.400;5.494;2023-03-14T16:28:28;3.90;;;0.60;;
47896;SDS011;39629;51.400;5.494;2023-03-14T16:33:31;6.47;;;0.70;;
47896;SDS011;39629;51.400;5.494;2023-03-14T16:38:34;7.45;;;0.90;;
47896;SDS011;39629;51.400;5.494;2023-03-14T16:43:36;5.13;;;0.70;;
47896;SDS011;39629;51.400;5.494;2023-03-14T16:48:39;3.85;;;0.70;;
47896;SDS011;39629;51.400;5.494;2023-03-14T16:53:41;3.17;;;0.70;;
47896;SDS011;39629;51.400;5.494;2023-03-14T16:58:43;3.65;;;0.60;;
47896;SDS011;39629;51.400;5.494;2023-03-14T17:03:46;5.05;;;0.85;;
47896;SDS011;39629;51.400;5.494;2023-03-14T17:08:49;5.60;;;0.70;;
47896;SDS011;39629;51.400;5.494;2023-03-14T17:13:50;4.53;;;0.80;;
47896;SDS011;39629;51.400;5.494;2023-03-14T17:18:53;4.25;;;0.63;;
47896;SDS011;39629;51.400;5.494;2023-03-14T17:23:55;7.63;;;0.88;;
47896;SDS011;39629;51.400;5.494;2023-03-14T17:28:57;6.28;;;0.80;;
47896;SDS011;39629;51.400;5.494;2023-03-14T17:34:00;6.03;;;0.93;;
47896;SDS011;39629;51.400;5.494;2023-03-14T17:39:01;4.78;;;0.68;;
47896;SDS011;39629;51.400;5.494;2023-03-14T17:44:03;2.38;;;0.50;;
47896;SDS011;39629;51.400;5.494;2023-03-14T17:49:07;4.38;;;0.90;;
47896;SDS011;39629;51.400;5.494;2023-03-14T17:54:08;8.63;;;0.80;;
47896;SDS011;39629;51.400;5.494;2023-03-14T17:59:10;4.22;;;0.95;;
47896;SDS011;39629;51.400;5.494;2023-03-14T18:04:13;3.03;;;0.80;;
47896;SDS011;39629;51.400;5.494;2023-03-14T18:09:16;8.57;;;1.20;;
47896;SDS011;39629;51.400;5.494;2023-03-14T18:14:17;4.93;;;1.10;;
47896;SDS011;39629;51.400;5.494;2023-03-14T18:19:20;7.35;;;1.30;;
47896;SDS011;39629;51.400;5.494;2023-03-14T18:24:22;8.45;;;1.40;;
47896;SDS011;39629;51.400;5.494;2023-03-14T18:29:24;5.78;;;1.30;;
47896;SDS011;39629;51.400;5.494;2023-03-14T18:34:27;7.10;;;1.48;;
47896;SDS011;39629;51.400;5.494;2023-03-14T18:39:28;4.05;;;1.30;;
47896;SDS011;39629;51.400;5.494;2023-03-14T18:44:30;3.83;;;1.00;;
47896;SDS011;39629;51.400;5.494;2023-03-14T18:49:33;6.40;;;1.40;;
47896;SDS011;39629;51.400;5.494;2023-03-14T18:54:34;10.45;;;1.55;;
47896;SDS011;39629;51.400;5.494;2023-03-14T18:59:36;10.68;;;2.00;;
47896;SDS011;39629;51.400;5.494;2023-03-14T19:04:39;6.40;;;1.10;;
47896;SDS011;39629;51.400;5.494;2023-03-14T19:09:41;6.07;;;1.60;;
47896;SDS011;39629;51.400;5.494;2023-03-14T19:14:42;3.65;;;1.27;;
47896;SDS011;39629;51.400;5.494;2023-03-14T19:19:45;4.78;;;1.30;;
47896;SDS011;39629;51.400;5.494;2023-03-14T19:24:47;5.20;;;1.30;;
47896;SDS011;39629;51.400;5.494;2023-03-14T19:29:48;8.27;;;1.45;;
47896;SDS011;39629;51.400;5.494;2023-03-14T19:34:52;9.77;;;2.10;;
47896;SDS011;39629;51.400;5.494;2023-03-14T19:39:54;8.63;;;2.50;;
47896;SDS011;39629;51.400;5.494;2023-03-14T19:44:55;8.48;;;2.40;;
47896;SDS011;39629;51.400;5.494;2023-03-14T19:49:59;14.55;;;2.45;;
47896;SDS011;39629;51.400;5.494;2023-03-14T19:55:01;7.00;;;2.20;;
47896;SDS011;39629;51.400;5.494;2023-03-14T20:00:03;6.72;;;1.77;;
47896;SDS011;39629;51.400;5.494;2023-03-14T20:05:13;10.73;;;1.60;;
47896;SDS011;39629;51.400;5.494;2023-03-14T20:10:16;4.95;;;1.55;;
47896;SDS011;39629;51.400;5.494;2023-03-14T20:15:21;5.22;;;1.48;;
47896;SDS011;39629;51.400;5.494;2023-03-14T20:20:24;10.35;;;1.80;;
47896;SDS011;39629;51.400;5.494;2023-03-14T20:25:27;8.50;;;1.40;;
47896;SDS011;39629;51.400;5.494;2023-03-14T20:30:28;3.85;;;1.63;;
47896;SDS011;39629;51.400;5.494;2023-03-14T20:35:31;6.97;;;1.42;;
47896;SDS011;39629;51.400;5.494;2023-03-14T20:40:33;8.65;;;1.70;;
47896;SDS011;39629;51.400;5.494;2023-03-14T20:45:35;7.70;;;1.92;;
47896;SDS011;39629;51.400;5.494;2023-03-14T20:50:38;11.02;;;1.90;;
47896;SDS011;39629;51.400;5.494;2023-03-14T20:55:39;9.48;;;2.13;;
47896;SDS011;39629;51.400;5.494;2023-03-14T21:00:44;9.82;;;1.88;;
47896;SDS011;39629;51.400;5.494;2023-03-14T21:05:48;4.07;;;1.38;;
47896;SDS011;39629;51.400;5.494;2023-03-14T21:10:51;8.30;;;1.73;;
47896;SDS011;39629;51.400;5.494;2023-03-14T21:15:54;10.90;;;1.95;;
47896;SDS011;39629;51.400;5.494;2023-03-14T21:26:02;6.72;;;1.75;;
47896;SDS011;39629;51.400;5.494;2023-03-14T21:31:03;8.15;;;2.00;;
47896;SDS011;39629;51.400;5.494;2023-03-14T21:36:07;8.38;;;1.60;;
47896;SDS011;39629;51.400;5.494;2023-03-14T21:41:10;10.67;;;1.77;;
47896;SDS011;39629;51.400;5.494;2023-03-14T21:46:13;10.55;;;1.90;;
47896;SDS011;39629;51.400;5.494;2023-03-14T21:51:16;5.22;;;2.08;;
47896;SDS011;39629;51.400;5.494;2023-03-14T21:56:18;5.68;;;1.30;;
47896;SDS011;39629;51.400;5.494;2023-03-14T22:01:19;8.93;;;2.13;;
47896;SDS011;39629;51.400;5.494;2023-03-14T22:06:24;8.60;;;1.98;;
47896;SDS011;39629;51.400;5.494;2023-03-14T22:11:25;11.40;;;2.10;;
47896;SDS011;39629;51.400;5.494;2023-03-14T22:16:27;9.88;;;2.05;;
47896;SDS011;39629;51.400;5.494;2023-03-14T22:21:30;7.65;;;1.90;;
47896;SDS011;39629;51.400;5.494;2023-03-14T22:26:31;9.30;;;1.77;;
47896;SDS011;39629;51.400;5.494;2023-03-14T22:31:33;8.15;;;2.42;;
47896;SDS011;39629;51.400;5.494;2023-03-14T22:36:36;9.43;;;2.20;;
47896;SDS011;39629;51.400;5.494;2023-03-14T22:41:38;9.80;;;2.10;;
47896;SDS011;39629;51.400;5.494;2023-03-14T22:46:39;6.95;;;2.17;;
47896;SDS011;39629;51.400;5.494;2023-03-14T22:51:42;10.35;;;2.50;;
47896;SDS011;39629;51.400;5.494;2023-03-14T22:56:44;9.25;;;2.22;;
47896;SDS011;39629;51.400;5.494;2023-03-14T23:01:45;9.70;;;2.38;;
47896;SDS011;39629;51.400;5.494;2023-03-14T23:06:49;13.65;;;3.05;;
47896;SDS011;39629;51.400;5.494;2023-03-14T23:11:50;9.73;;;3.05;;
47896;SDS011;39629;51.400;5.494;2023-03-14T23:16:52;6.97;;;2.72;;
47896;SDS011;39629;51.400;5.494;2023-03-14T23:21:56;9.50;;;3.20;;
47896;SDS011;39629;51.400;5.494;2023-03-14T23:26:57;6.05;;;2.42;;
47896;SDS011;39629;51.400;5.494;2023-03-14T23:31:59;9.40;;;3.10;;
47896;SDS011;39629;51.400;5.494;2023-03-14T23:37:02;6.22;;;2.42;;
47896;SDS011;39629;51.400;5.494;2023-03-14T23:42:04;7.22;;;2.72;;
47896;SDS011;39629;51.400;5.494;2023-03-14T23:47:06;6.90;;;2.25;;
47896;SDS011;39629;51.400;5.494;2023-03-14T23:52:10;5.45;;;2.10;;
47896;SDS011;39629;51.400;5.494;2023-03-14T23:57:12;4.35;;;1.77;;
